sensor_id;sensor_type;location;lat;lon;timestamp;P1;durP1;ratioP1;P2;durP2;ratioP2
49217;SDS011;35045;51.194;7.268;2023-11-22T00:01:58;14.88;;;10.07;;
49217;SDS011;35045;51.194;7.268;2023-11-22T00:04:25;13.48;;;9.70;;
49217;SDS011;35045;51.194;7.268;2023-11-22T00:06:51;14.57;;;10.32;;
49217;SDS011;35045;51.194;7.268;2023-11-22T00:09:17;16.58;;;10.85;;
49217;SDS011;35045;51.194;7.268;2023-11-22T00:11:48;13.90;;;10.07;;
49217;SDS011;35045;51.194;7.268;2023-11-22T00:14:15;15.45;;;10.90;;
49217;SDS011;35045;51.194;7.268;2023-11-22T00:16:41;14.68;;;11.05;;
49217;SDS011;35045;51.194;7.268;2023-11-22T00:19:08;14.48;;;10.30;;
49217;SDS011;35045;51.194;7.268;2023-11-22T00:21:34;15.20;;;10.23;;
49217;SDS011;35045;51.194;7.268;2023-11-22T00:24:01;13.80;;;10.57;;
49217;SDS011;35045;51.194;7.268;2023-11-22T00:26:27;15.55;;;10.70;;
49217;SDS011;35045;51.194;7.268;2023-11-22T00:28:53;15.27;;;9.65;;
49217;SDS011;35045;51.194;7.268;2023-11-22T00:31:20;15.35;;;11.05;;
49217;SDS011;35045;51.194;7.268;2023-11-22T00:33:46;20.10;;;10.95;;
49217;SDS011;35045;51.194;7.268;2023-11-22T00:36:12;13.18;;;10.48;;
49217;SDS011;35045;51.194;7.268;2023-11-22T00:38:38;13.88;;;10.88;;
49217;SDS011;35045;51.194;7.268;2023-11-22T00:41:05;16.30;;;11.40;;
49217;SDS011;35045;51.194;7.268;2023-11-22T00:43:33;16.30;;;11.52;;
49217;SDS011;35045;51.194;7.268;2023-11-22T00:45:59;14.15;;;11.05;;
49217;SDS011;35045;51.194;7.268;2023-11-22T00:48:27;15.00;;;11.75;;
49217;SDS011;35045;51.194;7.268;2023-11-22T00:50:53;14.40;;;11.27;;
49217;SDS011;35045;51.194;7.268;2023-11-22T00:53:20;15.77;;;10.85;;
49217;SDS011;35045;51.194;7.268;2023-11-22T00:55:46;15.27;;;11.32;;
49217;SDS011;35045;51.194;7.268;2023-11-22T00:58:12;16.80;;;11.63;;
49217;SDS011;35045;51.194;7.268;2023-11-22T01:00:38;15.43;;;11.45;;
49217;SDS011;35045;51.194;7.268;2023-11-22T01:03:05;14.20;;;10.90;;
49217;SDS011;35045;51.194;7.268;2023-11-22T01:05:31;15.82;;;11.98;;
49217;SDS011;35045;51.194;7.268;2023-11-22T01:07:57;14.82;;;11.27;;
49217;SDS011;35045;51.194;7.268;2023-11-22T01:10:23;15.05;;;11.07;;
49217;SDS011;35045;51.194;7.268;2023-11-22T01:12:49;15.32;;;10.63;;
49217;SDS011;35045;51.194;7.268;2023-11-22T01:15:16;13.85;;;10.65;;
49217;SDS011;35045;51.194;7.268;2023-11-22T01:17:42;18.73;;;11.73;;
49217;SDS011;35045;51.194;7.268;2023-11-22T01:20:08;16.38;;;11.50;;
49217;SDS011;35045;51.194;7.268;2023-11-22T01:22:39;14.50;;;11.57;;
49217;SDS011;35045;51.194;7.268;2023-11-22T01:25:05;16.20;;;11.73;;
49217;SDS011;35045;51.194;7.268;2023-11-22T01:27:32;14.98;;;10.05;;
49217;SDS011;35045;51.194;7.268;2023-11-22T01:29:59;13.02;;;10.55;;
49217;SDS011;35045;51.194;7.268;2023-11-22T01:32:25;13.88;;;10.20;;
49217;SDS011;35045;51.194;7.268;2023-11-22T01:34:51;15.18;;;10.65;;
49217;SDS011;35045;51.194;7.268;2023-11-22T01:37:18;12.88;;;9.73;;
49217;SDS011;35045;51.194;7.268;2023-11-22T01:39:44;14.57;;;10.05;;
49217;SDS011;35045;51.194;7.268;2023-11-22T01:42:10;12.85;;;9.80;;
49217;SDS011;35045;51.194;7.268;2023-11-22T01:44:36;12.27;;;9.15;;
49217;SDS011;35045;51.194;7.268;2023-11-22T01:47:03;15.38;;;9.60;;
49217;SDS011;35045;51.194;7.268;2023-11-22T01:49:30;15.13;;;10.35;;
49217;SDS011;35045;51.194;7.268;2023-11-22T01:51:57;12.73;;;9.02;;
49217;SDS011;35045;51.194;7.268;2023-11-22T01:54:23;12.32;;;9.55;;
49217;SDS011;35045;51.194;7.268;2023-11-22T01:56:50;12.68;;;9.82;;
49217;SDS011;35045;51.194;7.268;2023-11-22T01:59:17;13.30;;;8.43;;
49217;SDS011;35045;51.194;7.268;2023-11-22T02:01:43;13.07;;;9.30;;
49217;SDS011;35045;51.194;7.268;2023-11-22T02:04:11;12.85;;;8.70;;
49217;SDS011;35045;51.194;7.268;2023-11-22T02:06:38;11.88;;;8.98;;
49217;SDS011;35045;51.194;7.268;2023-11-22T02:09:04;13.80;;;10.30;;
49217;SDS011;35045;51.194;7.268;2023-11-22T02:11:31;12.30;;;9.32;;
49217;SDS011;35045;51.194;7.268;2023-11-22T02:13:57;13.07;;;9.45;;
49217;SDS011;35045;51.194;7.268;2023-11-22T02:16:23;12.77;;;9.65;;
49217;SDS011;35045;51.194;7.268;2023-11-22T02:18:49;12.85;;;9.18;;
49217;SDS011;35045;51.194;7.268;2023-11-22T02:21:16;12.60;;;9.68;;
49217;SDS011;35045;51.194;7.268;2023-11-22T02:23:43;15.50;;;10.07;;
49217;SDS011;35045;51.194;7.268;2023-11-22T02:26:09;14.43;;;9.93;;
49217;SDS011;35045;51.194;7.268;2023-11-22T02:28:35;14.10;;;9.90;;
49217;SDS011;35045;51.194;7.268;2023-11-22T02:31:01;12.02;;;9.32;;
49217;SDS011;35045;51.194;7.268;2023-11-22T02:33:29;13.02;;;9.50;;
49217;SDS011;35045;51.194;7.268;2023-11-22T02:35:55;13.63;;;9.23;;
49217;SDS011;35045;51.194;7.268;2023-11-22T02:38:22;13.55;;;9.85;;
49217;SDS011;35045;51.194;7.268;2023-11-22T02:40:48;13.35;;;9.60;;
49217;SDS011;35045;51.194;7.268;2023-11-22T02:43:16;13.43;;;10.20;;
49217;SDS011;35045;51.194;7.268;2023-11-22T02:45:43;13.38;;;10.05;;
49217;SDS011;35045;51.194;7.268;2023-11-22T02:48:10;14.30;;;9.85;;
49217;SDS011;35045;51.194;7.268;2023-11-22T02:50:36;14.57;;;9.68;;
49217;SDS011;35045;51.194;7.268;2023-11-22T02:53:03;14.00;;;10.25;;
49217;SDS011;35045;51.194;7.268;2023-11-22T02:55:29;15.07;;;10.73;;
49217;SDS011;35045;51.194;7.268;2023-11-22T02:57:56;13.93;;;10.43;;
49217;SDS011;35045;51.194;7.268;2023-11-22T03:00:22;15.27;;;10.98;;
49217;SDS011;35045;51.194;7.268;2023-11-22T03:02:49;15.15;;;10.95;;
49217;SDS011;35045;51.194;7.268;2023-11-22T03:05:22;16.92;;;11.18;;
49217;SDS011;35045;51.194;7.268;2023-11-22T03:07:49;20.02;;;11.30;;
49217;SDS011;35045;51.194;7.268;2023-11-22T03:10:17;16.63;;;12.35;;
49217;SDS011;35045;51.194;7.268;2023-11-22T03:12:49;14.95;;;11.38;;
49217;SDS011;35045;51.194;7.268;2023-11-22T03:15:16;15.70;;;12.23;;
49217;SDS011;35045;51.194;7.268;2023-11-22T03:17:42;14.82;;;11.55;;
49217;SDS011;35045;51.194;7.268;2023-11-22T03:20:09;14.75;;;11.05;;
49217;SDS011;35045;51.194;7.268;2023-11-22T03:22:37;20.30;;;11.90;;
49217;SDS011;35045;51.194;7.268;2023-11-22T03:25:03;15.70;;;10.73;;
49217;SDS011;35045;51.194;7.268;2023-11-22T03:27:30;14.60;;;10.77;;
49217;SDS011;35045;51.194;7.268;2023-11-22T03:29:56;15.57;;;11.95;;
49217;SDS011;35045;51.194;7.268;2023-11-22T03:32:22;13.50;;;10.07;;
49217;SDS011;35045;51.194;7.268;2023-11-22T03:34:49;13.68;;;10.43;;
49217;SDS011;35045;51.194;7.268;2023-11-22T03:37:15;14.35;;;9.88;;
49217;SDS011;35045;51.194;7.268;2023-11-22T03:39:41;12.23;;;9.52;;
49217;SDS011;35045;51.194;7.268;2023-11-22T03:42:16;12.32;;;9.57;;
49217;SDS011;35045;51.194;7.268;2023-11-22T03:44:43;14.02;;;9.40;;
49217;SDS011;35045;51.194;7.268;2023-11-22T03:47:10;13.40;;;9.15;;
49217;SDS011;35045;51.194;7.268;2023-11-22T03:49:37;12.48;;;9.40;;
49217;SDS011;35045;51.194;7.268;2023-11-22T03:52:04;12.48;;;9.20;;
49217;SDS011;35045;51.194;7.268;2023-11-22T03:54:30;12.95;;;9.10;;
49217;SDS011;35045;51.194;7.268;2023-11-22T03:56:58;11.82;;;7.97;;
49217;SDS011;35045;51.194;7.268;2023-11-22T03:59:24;9.60;;;6.82;;
49217;SDS011;35045;51.194;7.268;2023-11-22T04:01:50;11.43;;;7.97;;
49217;SDS011;35045;51.194;7.268;2023-11-22T04:04:17;10.20;;;7.20;;
49217;SDS011;35045;51.194;7.268;2023-11-22T04:06:43;10.98;;;7.32;;
49217;SDS011;35045;51.194;7.268;2023-11-22T04:09:09;9.63;;;6.85;;
49217;SDS011;35045;51.194;7.268;2023-11-22T04:11:40;11.52;;;7.22;;
49217;SDS011;35045;51.194;7.268;2023-11-22T04:14:06;10.52;;;7.18;;
49217;SDS011;35045;51.194;7.268;2023-11-22T04:16:33;10.48;;;6.85;;
49217;SDS011;35045;51.194;7.268;2023-11-22T04:18:59;9.73;;;6.75;;
49217;SDS011;35045;51.194;7.268;2023-11-22T04:21:25;9.07;;;6.72;;
49217;SDS011;35045;51.194;7.268;2023-11-22T04:23:52;12.98;;;7.60;;
49217;SDS011;35045;51.194;7.268;2023-11-22T04:26:18;9.50;;;6.72;;
49217;SDS011;35045;51.194;7.268;2023-11-22T04:28:45;10.25;;;7.20;;
49217;SDS011;35045;51.194;7.268;2023-11-22T04:31:12;9.93;;;6.88;;
49217;SDS011;35045;51.194;7.268;2023-11-22T04:33:38;11.13;;;6.68;;
49217;SDS011;35045;51.194;7.268;2023-11-22T04:36:04;10.38;;;7.20;;
49217;SDS011;35045;51.194;7.268;2023-11-22T04:38:31;10.40;;;7.38;;
49217;SDS011;35045;51.194;7.268;2023-11-22T04:40:57;11.75;;;6.97;;
49217;SDS011;35045;51.194;7.268;2023-11-22T04:43:23;10.07;;;7.78;;
49217;SDS011;35045;51.194;7.268;2023-11-22T04:45:49;11.13;;;7.38;;
49217;SDS011;35045;51.194;7.268;2023-11-22T04:48:15;11.15;;;6.95;;
49217;SDS011;35045;51.194;7.268;2023-11-22T04:50:42;11.23;;;7.63;;
49217;SDS011;35045;51.194;7.268;2023-11-22T04:53:09;12.05;;;7.57;;
49217;SDS011;35045;51.194;7.268;2023-11-22T04:55:36;11.02;;;7.68;;
49217;SDS011;35045;51.194;7.268;2023-11-22T04:58:03;9.52;;;6.40;;
49217;SDS011;35045;51.194;7.268;2023-11-22T05:00:29;10.15;;;7.15;;
49217;SDS011;35045;51.194;7.268;2023-11-22T05:02:55;11.35;;;8.13;;
49217;SDS011;35045;51.194;7.268;2023-11-22T05:05:21;10.82;;;7.07;;
49217;SDS011;35045;51.194;7.268;2023-11-22T05:07:48;11.07;;;7.75;;
49217;SDS011;35045;51.194;7.268;2023-11-22T05:10:14;9.90;;;6.90;;
49217;SDS011;35045;51.194;7.268;2023-11-22T05:12:42;9.57;;;7.32;;
49217;SDS011;35045;51.194;7.268;2023-11-22T05:15:10;11.48;;;6.97;;
49217;SDS011;35045;51.194;7.268;2023-11-22T05:17:37;11.23;;;6.55;;
49217;SDS011;35045;51.194;7.268;2023-11-22T05:20:04;10.90;;;7.10;;
49217;SDS011;35045;51.194;7.268;2023-11-22T05:22:31;10.00;;;7.05;;
49217;SDS011;35045;51.194;7.268;2023-11-22T05:24:57;10.35;;;6.88;;
49217;SDS011;35045;51.194;7.268;2023-11-22T05:27:23;10.82;;;7.20;;
49217;SDS011;35045;51.194;7.268;2023-11-22T05:29:49;10.48;;;6.80;;
49217;SDS011;35045;51.194;7.268;2023-11-22T05:32:17;10.18;;;7.20;;
49217;SDS011;35045;51.194;7.268;2023-11-22T05:34:43;10.93;;;7.13;;
49217;SDS011;35045;51.194;7.268;2023-11-22T05:37:09;11.38;;;7.55;;
49217;SDS011;35045;51.194;7.268;2023-11-22T05:39:36;11.07;;;7.28;;
49217;SDS011;35045;51.194;7.268;2023-11-22T05:42:02;11.48;;;8.30;;
49217;SDS011;35045;51.194;7.268;2023-11-22T05:44:28;11.25;;;7.82;;
49217;SDS011;35045;51.194;7.268;2023-11-22T05:46:55;10.82;;;7.90;;
49217;SDS011;35045;51.194;7.268;2023-11-22T05:49:21;11.32;;;7.55;;
49217;SDS011;35045;51.194;7.268;2023-11-22T05:51:47;10.20;;;7.85;;
49217;SDS011;35045;51.194;7.268;2023-11-22T05:54:13;10.65;;;7.72;;
49217;SDS011;35045;51.194;7.268;2023-11-22T05:56:42;10.45;;;6.57;;
49217;SDS011;35045;51.194;7.268;2023-11-22T05:59:08;11.85;;;7.97;;
49217;SDS011;35045;51.194;7.268;2023-11-22T06:01:35;9.93;;;7.57;;
49217;SDS011;35045;51.194;7.268;2023-11-22T06:04:01;11.25;;;7.63;;
49217;SDS011;35045;51.194;7.268;2023-11-22T06:06:28;12.07;;;8.07;;
49217;SDS011;35045;51.194;7.268;2023-11-22T06:08:55;12.73;;;7.75;;
49217;SDS011;35045;51.194;7.268;2023-11-22T06:11:21;12.57;;;8.45;;
49217;SDS011;35045;51.194;7.268;2023-11-22T06:13:47;10.63;;;7.43;;
49217;SDS011;35045;51.194;7.268;2023-11-22T06:16:13;11.75;;;7.70;;
49217;SDS011;35045;51.194;7.268;2023-11-22T06:18:39;11.07;;;7.65;;
49217;SDS011;35045;51.194;7.268;2023-11-22T06:21:06;10.63;;;7.47;;
49217;SDS011;35045;51.194;7.268;2023-11-22T06:23:34;10.80;;;7.53;;
49217;SDS011;35045;51.194;7.268;2023-11-22T06:26:00;10.80;;;7.70;;
49217;SDS011;35045;51.194;7.268;2023-11-22T06:28:26;10.75;;;7.43;;
49217;SDS011;35045;51.194;7.268;2023-11-22T06:30:52;12.77;;;8.43;;
49217;SDS011;35045;51.194;7.268;2023-11-22T06:33:19;12.38;;;8.90;;
49217;SDS011;35045;51.194;7.268;2023-11-22T06:35:45;12.15;;;8.45;;
49217;SDS011;35045;51.194;7.268;2023-11-22T06:38:11;11.07;;;7.57;;
49217;SDS011;35045;51.194;7.268;2023-11-22T06:40:38;11.68;;;8.45;;
49217;SDS011;35045;51.194;7.268;2023-11-22T06:43:04;12.10;;;7.72;;
49217;SDS011;35045;51.194;7.268;2023-11-22T06:45:30;14.15;;;9.07;;
49217;SDS011;35045;51.194;7.268;2023-11-22T06:47:57;12.52;;;8.68;;
49217;SDS011;35045;51.194;7.268;2023-11-22T06:50:24;11.55;;;8.43;;
49217;SDS011;35045;51.194;7.268;2023-11-22T06:52:50;11.80;;;9.27;;
49217;SDS011;35045;51.194;7.268;2023-11-22T06:55:18;12.88;;;8.45;;
49217;SDS011;35045;51.194;7.268;2023-11-22T06:57:44;12.23;;;8.45;;
49217;SDS011;35045;51.194;7.268;2023-11-22T07:00:11;14.05;;;9.77;;
49217;SDS011;35045;51.194;7.268;2023-11-22T07:02:42;12.60;;;9.02;;
49217;SDS011;35045;51.194;7.268;2023-11-22T07:05:08;12.40;;;8.57;;
49217;SDS011;35045;51.194;7.268;2023-11-22T07:07:35;13.35;;;9.00;;
49217;SDS011;35045;51.194;7.268;2023-11-22T07:10:02;11.35;;;8.20;;
49217;SDS011;35045;51.194;7.268;2023-11-22T07:12:31;11.75;;;8.88;;
49217;SDS011;35045;51.194;7.268;2023-11-22T07:15:01;13.32;;;8.60;;
49217;SDS011;35045;51.194;7.268;2023-11-22T07:17:28;13.40;;;9.30;;
49217;SDS011;35045;51.194;7.268;2023-11-22T07:19:54;13.10;;;8.90;;
49217;SDS011;35045;51.194;7.268;2023-11-22T07:22:21;13.75;;;9.13;;
49217;SDS011;35045;51.194;7.268;2023-11-22T07:24:48;12.07;;;8.95;;
49217;SDS011;35045;51.194;7.268;2023-11-22T07:27:20;13.07;;;9.23;;
49217;SDS011;35045;51.194;7.268;2023-11-22T07:29:46;12.45;;;8.88;;
49217;SDS011;35045;51.194;7.268;2023-11-22T07:32:13;11.63;;;8.73;;
49217;SDS011;35045;51.194;7.268;2023-11-22T07:34:39;12.07;;;8.25;;
49217;SDS011;35045;51.194;7.268;2023-11-22T07:37:07;12.60;;;8.82;;
49217;SDS011;35045;51.194;7.268;2023-11-22T07:39:34;11.77;;;8.52;;
49217;SDS011;35045;51.194;7.268;2023-11-22T07:42:04;11.80;;;8.50;;
49217;SDS011;35045;51.194;7.268;2023-11-22T07:44:34;11.93;;;8.23;;
49217;SDS011;35045;51.194;7.268;2023-11-22T07:47:03;13.85;;;8.55;;
49217;SDS011;35045;51.194;7.268;2023-11-22T07:49:34;10.90;;;8.43;;
49217;SDS011;35045;51.194;7.268;2023-11-22T07:52:04;12.05;;;7.95;;
49217;SDS011;35045;51.194;7.268;2023-11-22T07:54:31;12.98;;;8.50;;
49217;SDS011;35045;51.194;7.268;2023-11-22T07:56:57;11.80;;;8.18;;
49217;SDS011;35045;51.194;7.268;2023-11-22T07:59:24;11.43;;;8.38;;
49217;SDS011;35045;51.194;7.268;2023-11-22T08:01:50;14.02;;;9.52;;
49217;SDS011;35045;51.194;7.268;2023-11-22T08:04:19;12.55;;;8.40;;
49217;SDS011;35045;51.194;7.268;2023-11-22T08:06:45;11.50;;;7.95;;
49217;SDS011;35045;51.194;7.268;2023-11-22T08:09:11;11.68;;;7.80;;
49217;SDS011;35045;51.194;7.268;2023-11-22T08:11:37;12.25;;;8.35;;
49217;SDS011;35045;51.194;7.268;2023-11-22T08:14:04;12.63;;;8.43;;
49217;SDS011;35045;51.194;7.268;2023-11-22T08:16:32;11.60;;;6.97;;
49217;SDS011;35045;51.194;7.268;2023-11-22T08:19:04;10.70;;;7.10;;
49217;SDS011;35045;51.194;7.268;2023-11-22T08:21:31;11.15;;;7.35;;
49217;SDS011;35045;51.194;7.268;2023-11-22T08:23:58;10.25;;;6.38;;
49217;SDS011;35045;51.194;7.268;2023-11-22T08:26:25;13.93;;;7.93;;
49217;SDS011;35045;51.194;7.268;2023-11-22T08:28:51;11.10;;;7.30;;
49217;SDS011;35045;51.194;7.268;2023-11-22T08:31:18;12.75;;;8.07;;
49217;SDS011;35045;51.194;7.268;2023-11-22T08:33:44;10.63;;;6.35;;
49217;SDS011;35045;51.194;7.268;2023-11-22T08:36:10;10.50;;;6.43;;
49217;SDS011;35045;51.194;7.268;2023-11-22T08:38:36;8.57;;;5.03;;
49217;SDS011;35045;51.194;7.268;2023-11-22T08:41:07;9.55;;;5.53;;
49217;SDS011;35045;51.194;7.268;2023-11-22T08:43:37;10.68;;;5.80;;
49217;SDS011;35045;51.194;7.268;2023-11-22T08:46:03;9.43;;;4.97;;
49217;SDS011;35045;51.194;7.268;2023-11-22T08:48:33;7.82;;;4.63;;
49217;SDS011;35045;51.194;7.268;2023-11-22T08:51:00;9.27;;;3.63;;
49217;SDS011;35045;51.194;7.268;2023-11-22T08:53:27;7.78;;;4.07;;
49217;SDS011;35045;51.194;7.268;2023-11-22T08:55:55;8.98;;;5.43;;
49217;SDS011;35045;51.194;7.268;2023-11-22T08:58:22;9.02;;;5.20;;
49217;SDS011;35045;51.194;7.268;2023-11-22T09:00:49;9.63;;;6.13;;
49217;SDS011;35045;51.194;7.268;2023-11-22T09:03:15;9.40;;;6.25;;
49217;SDS011;35045;51.194;7.268;2023-11-22T09:05:45;10.02;;;6.30;;
49217;SDS011;35045;51.194;7.268;2023-11-22T09:08:15;10.25;;;7.38;;
49217;SDS011;35045;51.194;7.268;2023-11-22T09:10:44;8.63;;;5.88;;
49217;SDS011;35045;51.194;7.268;2023-11-22T09:13:10;11.63;;;6.43;;
49217;SDS011;35045;51.194;7.268;2023-11-22T09:15:36;10.75;;;6.40;;
49217;SDS011;35045;51.194;7.268;2023-11-22T09:18:04;9.50;;;6.25;;
49217;SDS011;35045;51.194;7.268;2023-11-22T09:20:32;7.75;;;4.13;;
49217;SDS011;35045;51.194;7.268;2023-11-22T09:22:58;9.65;;;4.50;;
49217;SDS011;35045;51.194;7.268;2023-11-22T09:25:25;7.78;;;4.65;;
49217;SDS011;35045;51.194;7.268;2023-11-22T09:27:54;9.23;;;4.53;;
49217;SDS011;35045;51.194;7.268;2023-11-22T09:30:25;8.98;;;4.90;;
49217;SDS011;35045;51.194;7.268;2023-11-22T09:33:01;7.43;;;4.25;;
49217;SDS011;35045;51.194;7.268;2023-11-22T09:35:29;8.50;;;4.75;;
49217;SDS011;35045;51.194;7.268;2023-11-22T09:37:57;7.82;;;4.25;;
49217;SDS011;35045;51.194;7.268;2023-11-22T09:40:25;9.07;;;3.67;;
49217;SDS011;35045;51.194;7.268;2023-11-22T09:42:53;6.80;;;3.65;;
49217;SDS011;35045;51.194;7.268;2023-11-22T09:45:21;6.88;;;3.58;;
49217;SDS011;35045;51.194;7.268;2023-11-22T09:47:48;7.10;;;3.60;;
49217;SDS011;35045;51.194;7.268;2023-11-22T09:50:23;6.53;;;3.70;;
49217;SDS011;35045;51.194;7.268;2023-11-22T09:53:01;6.88;;;3.55;;
49217;SDS011;35045;51.194;7.268;2023-11-22T09:55:29;6.72;;;3.40;;
49217;SDS011;35045;51.194;7.268;2023-11-22T09:57:57;6.88;;;3.45;;
49217;SDS011;35045;51.194;7.268;2023-11-22T10:00:26;6.32;;;3.20;;
49217;SDS011;35045;51.194;7.268;2023-11-22T10:02:56;6.32;;;3.20;;
49217;SDS011;35045;51.194;7.268;2023-11-22T10:05:26;6.72;;;3.40;;
49217;SDS011;35045;51.194;7.268;2023-11-22T10:07:54;6.75;;;3.47;;
49217;SDS011;35045;51.194;7.268;2023-11-22T10:10:21;6.53;;;3.40;;
49217;SDS011;35045;51.194;7.268;2023-11-22T10:12:55;6.30;;;3.35;;
49217;SDS011;35045;51.194;7.268;2023-11-22T10:15:21;6.57;;;3.33;;
49217;SDS011;35045;51.194;7.268;2023-11-22T10:17:58;6.20;;;3.00;;
49217;SDS011;35045;51.194;7.268;2023-11-22T10:20:35;5.93;;;2.90;;
49217;SDS011;35045;51.194;7.268;2023-11-22T10:23:12;6.05;;;2.35;;
49217;SDS011;35045;51.194;7.268;2023-11-22T10:25:43;5.60;;;2.50;;
49217;SDS011;35045;51.194;7.268;2023-11-22T10:28:09;6.70;;;2.67;;
49217;SDS011;35045;51.194;7.268;2023-11-22T10:30:35;6.95;;;2.85;;
49217;SDS011;35045;51.194;7.268;2023-11-22T10:33:02;6.05;;;3.10;;
49217;SDS011;35045;51.194;7.268;2023-11-22T10:35:29;5.90;;;3.00;;
49217;SDS011;35045;51.194;7.268;2023-11-22T10:37:56;7.72;;;3.13;;
49217;SDS011;35045;51.194;7.268;2023-11-22T10:40:22;5.72;;;2.60;;
49217;SDS011;35045;51.194;7.268;2023-11-22T10:42:50;5.57;;;2.78;;
49217;SDS011;35045;51.194;7.268;2023-11-22T10:45:18;7.63;;;2.67;;
49217;SDS011;35045;51.194;7.268;2023-11-22T10:47:47;6.25;;;2.95;;
49217;SDS011;35045;51.194;7.268;2023-11-22T10:50:15;5.25;;;2.42;;
49217;SDS011;35045;51.194;7.268;2023-11-22T10:52:41;5.55;;;2.60;;
49217;SDS011;35045;51.194;7.268;2023-11-22T10:55:09;5.10;;;2.63;;
49217;SDS011;35045;51.194;7.268;2023-11-22T10:57:44;5.32;;;2.28;;
49217;SDS011;35045;51.194;7.268;2023-11-22T11:02:41;5.70;;;2.08;;
49217;SDS011;35045;51.194;7.268;2023-11-22T11:05:16;5.22;;;2.10;;
49217;SDS011;35045;51.194;7.268;2023-11-22T11:07:52;6.00;;;2.03;;
49217;SDS011;35045;51.194;7.268;2023-11-22T11:10:24;5.03;;;2.17;;
49217;SDS011;35045;51.194;7.268;2023-11-22T11:12:52;4.65;;;1.98;;
49217;SDS011;35045;51.194;7.268;2023-11-22T11:15:19;5.53;;;2.20;;
49217;SDS011;35045;51.194;7.268;2023-11-22T11:17:47;4.70;;;2.00;;
49217;SDS011;35045;51.194;7.268;2023-11-22T11:20:16;5.95;;;2.35;;
49217;SDS011;35045;51.194;7.268;2023-11-22T11:22:44;4.90;;;2.15;;
49217;SDS011;35045;51.194;7.268;2023-11-22T11:25:13;5.05;;;2.13;;
49217;SDS011;35045;51.194;7.268;2023-11-22T11:27:45;4.60;;;2.00;;
49217;SDS011;35045;51.194;7.268;2023-11-22T11:33:11;4.60;;;2.15;;
49217;SDS011;35045;51.194;7.268;2023-11-22T11:38:13;4.90;;;2.10;;
49217;SDS011;35045;51.194;7.268;2023-11-22T11:40:40;5.25;;;2.05;;
49217;SDS011;35045;51.194;7.268;2023-11-22T11:43:08;5.63;;;1.98;;
49217;SDS011;35045;51.194;7.268;2023-11-22T11:45:38;5.55;;;2.00;;
49217;SDS011;35045;51.194;7.268;2023-11-22T11:48:14;5.40;;;1.88;;
49217;SDS011;35045;51.194;7.268;2023-11-22T11:50:43;4.93;;;2.13;;
49217;SDS011;35045;51.194;7.268;2023-11-22T11:53:12;6.32;;;2.05;;
49217;SDS011;35045;51.194;7.268;2023-11-22T11:55:38;5.72;;;1.90;;
49217;SDS011;35045;51.194;7.268;2023-11-22T11:58:05;5.20;;;2.15;;
49217;SDS011;35045;51.194;7.268;2023-11-22T12:00:35;3.70;;;1.52;;
49217;SDS011;35045;51.194;7.268;2023-11-22T12:03:06;4.55;;;1.80;;
49217;SDS011;35045;51.194;7.268;2023-11-22T12:05:36;4.78;;;1.83;;
49217;SDS011;35045;51.194;7.268;2023-11-22T12:08:03;4.05;;;1.70;;
49217;SDS011;35045;51.194;7.268;2023-11-22T12:10:29;4.47;;;1.65;;
49217;SDS011;35045;51.194;7.268;2023-11-22T12:12:56;4.75;;;2.00;;
49217;SDS011;35045;51.194;7.268;2023-11-22T12:15:24;4.63;;;1.52;;
49217;SDS011;35045;51.194;7.268;2023-11-22T12:17:51;3.67;;;1.70;;
49217;SDS011;35045;51.194;7.268;2023-11-22T12:20:20;4.43;;;1.75;;
49217;SDS011;35045;51.194;7.268;2023-11-22T12:22:47;3.95;;;1.50;;
49217;SDS011;35045;51.194;7.268;2023-11-22T12:25:14;4.00;;;1.45;;
49217;SDS011;35045;51.194;7.268;2023-11-22T12:27:41;4.38;;;1.48;;
49217;SDS011;35045;51.194;7.268;2023-11-22T12:30:12;3.50;;;1.40;;
49217;SDS011;35045;51.194;7.268;2023-11-22T12:32:54;4.03;;;1.48;;
49217;SDS011;35045;51.194;7.268;2023-11-22T12:35:21;4.63;;;1.40;;
49217;SDS011;35045;51.194;7.268;2023-11-22T12:37:49;4.82;;;1.33;;
49217;SDS011;35045;51.194;7.268;2023-11-22T12:40:15;3.03;;;1.20;;
49217;SDS011;35045;51.194;7.268;2023-11-22T12:42:49;2.60;;;1.02;;
49217;SDS011;35045;51.194;7.268;2023-11-22T12:45:20;3.25;;;1.20;;
49217;SDS011;35045;51.194;7.268;2023-11-22T12:47:49;2.85;;;1.20;;
49217;SDS011;35045;51.194;7.268;2023-11-22T12:53:22;2.63;;;1.05;;
49217;SDS011;35045;51.194;7.268;2023-11-22T12:58:15;2.58;;;1.10;;
49217;SDS011;35045;51.194;7.268;2023-11-22T13:00:46;6.38;;;1.50;;
49217;SDS011;35045;51.194;7.268;2023-11-22T13:03:13;3.17;;;1.20;;
49217;SDS011;35045;51.194;7.268;2023-11-22T13:05:40;2.90;;;1.30;;
49217;SDS011;35045;51.194;7.268;2023-11-22T13:08:08;3.45;;;1.13;;
49217;SDS011;35045;51.194;7.268;2023-11-22T13:10:47;3.58;;;1.58;;
49217;SDS011;35045;51.194;7.268;2023-11-22T13:13:20;3.40;;;1.30;;
49217;SDS011;35045;51.194;7.268;2023-11-22T13:15:47;2.40;;;1.00;;
49217;SDS011;35045;51.194;7.268;2023-11-22T13:18:13;3.33;;;1.20;;
49217;SDS011;35045;51.194;7.268;2023-11-22T13:20:39;3.20;;;1.23;;
49217;SDS011;35045;51.194;7.268;2023-11-22T13:23:06;5.60;;;1.30;;
49217;SDS011;35045;51.194;7.268;2023-11-22T13:25:33;4.50;;;1.70;;
49217;SDS011;35045;51.194;7.268;2023-11-22T13:27:59;4.95;;;1.30;;
49217;SDS011;35045;51.194;7.268;2023-11-22T13:30:26;2.85;;;1.30;;
49217;SDS011;35045;51.194;7.268;2023-11-22T13:32:52;4.50;;;1.35;;
49217;SDS011;35045;51.194;7.268;2023-11-22T13:35:22;5.28;;;1.20;;
49217;SDS011;35045;51.194;7.268;2023-11-22T13:37:49;3.50;;;1.38;;
49217;SDS011;35045;51.194;7.268;2023-11-22T13:40:19;3.53;;;1.50;;
49217;SDS011;35045;51.194;7.268;2023-11-22T13:42:51;2.97;;;1.17;;
49217;SDS011;35045;51.194;7.268;2023-11-22T13:45:18;3.53;;;1.35;;
49217;SDS011;35045;51.194;7.268;2023-11-22T13:47:55;4.03;;;1.60;;
49217;SDS011;35045;51.194;7.268;2023-11-22T13:50:29;2.90;;;1.30;;
49217;SDS011;35045;51.194;7.268;2023-11-22T13:52:55;5.10;;;1.67;;
49217;SDS011;35045;51.194;7.268;2023-11-22T13:55:23;4.28;;;1.60;;
49217;SDS011;35045;51.194;7.268;2023-11-22T13:57:53;3.63;;;1.52;;
49217;SDS011;35045;51.194;7.268;2023-11-22T14:00:24;4.55;;;1.80;;
49217;SDS011;35045;51.194;7.268;2023-11-22T14:05:31;3.95;;;1.40;;
49217;SDS011;35045;51.194;7.268;2023-11-22T14:08:00;3.90;;;1.50;;
49217;SDS011;35045;51.194;7.268;2023-11-22T14:10:26;5.28;;;1.63;;
49217;SDS011;35045;51.194;7.268;2023-11-22T14:12:53;6.03;;;1.85;;
49217;SDS011;35045;51.194;7.268;2023-11-22T14:15:19;5.32;;;1.80;;
49217;SDS011;35045;51.194;7.268;2023-11-22T14:17:45;5.03;;;1.50;;
49217;SDS011;35045;51.194;7.268;2023-11-22T14:20:15;5.45;;;1.58;;
49217;SDS011;35045;51.194;7.268;2023-11-22T14:22:42;5.35;;;1.42;;
49217;SDS011;35045;51.194;7.268;2023-11-22T14:25:09;6.35;;;2.17;;
49217;SDS011;35045;51.194;7.268;2023-11-22T14:27:43;3.55;;;1.38;;
49217;SDS011;35045;51.194;7.268;2023-11-22T14:30:10;3.85;;;1.55;;
49217;SDS011;35045;51.194;7.268;2023-11-22T14:32:40;4.20;;;1.73;;
49217;SDS011;35045;51.194;7.268;2023-11-22T14:35:10;5.53;;;1.88;;
49217;SDS011;35045;51.194;7.268;2023-11-22T14:37:37;6.43;;;1.90;;
49217;SDS011;35045;51.194;7.268;2023-11-22T14:40:07;6.20;;;2.35;;
49217;SDS011;35045;51.194;7.268;2023-11-22T14:42:40;5.75;;;2.08;;
49217;SDS011;35045;51.194;7.268;2023-11-22T14:45:08;5.85;;;1.88;;
49217;SDS011;35045;51.194;7.268;2023-11-22T14:47:34;3.80;;;1.50;;
49217;SDS011;35045;51.194;7.268;2023-11-22T14:50:02;5.30;;;2.33;;
49217;SDS011;35045;51.194;7.268;2023-11-22T14:52:31;4.93;;;2.10;;
49217;SDS011;35045;51.194;7.268;2023-11-22T14:54:58;5.70;;;2.40;;
49217;SDS011;35045;51.194;7.268;2023-11-22T14:57:26;5.43;;;2.60;;